Terminal Aerodrome Forecast
Issued by NWS Austin/San Antonio, TX

Home | Current Version | Previous Version | Text Only | Print | Product List | Glossary On
Versions: 1 2 3 4 5 6 7 8 9 10 11 12
111
FTUS44 KEWX 132331
TAFAUS
TAF
KAUS 132331Z 1400/1506 16011KT P6SM SCT050
     FM140800 18007KT P6SM OVC009
     FM141700 19016G26KT P6SM SCT030=

USA.gov is the U.S. government's official web portal to all federal, state and local government web resources and services.